Orbital elements of PROBA-2
| Launched | 1 November 2009 |
| Flight ended | – |
| Launch site | Plesetsk Missile and Space Complex, Russia |
| Owner | European Space Agency |
| NORAD ID | 36037 |
| Alternative names |
PROJECT FOR ONBOARD AUTONOMY-2 |
| Date fetched |
Epoch osculation |
Inc. [°] |
Ecc. | RA asc node [hr] |
Arg Peri. [°] |
Mean anom [°] |
Mean motion [rev/day] |
Abs. mag |
| Date fetched |
Epoch osculation |
Inc. [°] |
Ecc. | RA asc node [hr] |
Arg Peri. [°] |
Mean anom [°] |
Mean motion [rev/day] |
Abs. mag |
| 2026 May 09 17:57 | 2026 May 09 10:49:14 | 98.2451 | 0.00141 | 20.8894 | 44.7239 | 315.5096 | 14.54846 | 7.000 |
| 2026 May 08 17:57 | 2026 May 08 05:06:33 | 98.2451 | 0.00142 | 20.8081 | 48.3055 | 315.5096 | 14.54846 | 7.000 |
| 2026 May 07 17:58 | 2026 May 07 06:00:01 | 98.2450 | 0.00142 | 20.7447 | 51.0559 | 315.5096 | 14.54846 | 7.000 |
| 2026 May 06 17:57 | 2026 May 06 11:50:36 | 98.2450 | 0.00143 | 20.6950 | 53.1981 | 315.5096 | 14.54846 | 7.000 |
| 2026 May 05 17:57 | 2026 May 05 09:25:59 | 98.2449 | 0.00143 | 20.6227 | 56.3617 | 315.5096 | 14.54846 | 7.000 |
| 2026 May 04 17:57 | 2026 May 04 11:58:30 | 98.2449 | 0.00144 | 20.5639 | 58.8945 | 315.5096 | 14.54846 | 7.000 |
| 2026 May 03 17:57 | 2026 May 03 11:12:55 | 98.2448 | 0.00144 | 20.4961 | 61.8362 | 315.5096 | 14.54846 | 7.000 |
| 2026 May 02 17:57 | 2026 May 02 10:27:21 | 98.2448 | 0.00144 | 20.4282 | 64.8050 | 315.5096 | 14.54846 | 7.000 |
| 2026 May 01 17:56 | 2026 May 01 11:20:49 | 98.2448 | 0.00145 | 20.3649 | 67.5363 | 315.5096 | 14.54846 | 7.000 |
| 2026 Apr 30 17:56 | 2026 Apr 30 12:14:17 | 98.2449 | 0.00145 | 20.3016 | 70.2426 | 315.5096 | 14.54846 | 7.000 |
| 2026 Apr 29 17:57 | 2026 Apr 29 11:28:43 | 98.2449 | 0.00145 | 20.2338 | 73.1704 | 315.5096 | 14.54846 | 7.000 |
| 2026 Apr 28 17:56 | 2026 Apr 28 12:22:11 | 98.2450 | 0.00145 | 20.1705 | 75.9019 | 315.5096 | 14.54846 | 7.000 |
| 2026 Apr 27 17:58 | 2026 Apr 27 09:57:34 | 98.2450 | 0.00146 | 20.0982 | 79.0302 | 315.5096 | 14.54846 | 7.000 |
| 2026 Apr 26 17:58 | 2026 Apr 26 10:51:02 | 98.2450 | 0.00146 | 20.0349 | 81.7425 | 315.5096 | 14.54846 | 7.000 |
| 2026 Apr 25 17:58 | 2026 Apr 25 11:44:29 | 98.2451 | 0.00146 | 19.9716 | 84.4729 | 315.5096 | 14.54846 | 7.000 |
| 2026 Apr 24 17:59 | 2026 Apr 24 10:58:55 | 98.2450 | 0.00146 | 19.9037 | 87.3538 | 315.5096 | 14.54846 | 7.000 |
| 2026 Apr 23 17:57 | 2026 Apr 22 17:42:57 | 98.2450 | 0.00146 | 19.7907 | 92.2034 | 315.5096 | 14.54846 | 7.000 |
| 2026 Apr 22 17:57 | 2026 Apr 21 23:33:32 | 98.2449 | 0.00146 | 19.7410 | 94.3399 | 315.5096 | 14.54846 | 7.000 |
| 2026 Apr 21 17:57 | 2026 Apr 21 08:42:11 | 98.2449 | 0.00146 | 19.7003 | 96.0784 | 315.5096 | 14.54846 | 7.000 |
| 2026 Apr 20 17:57 | 2026 Apr 20 07:56:36 | 98.2448 | 0.00146 | 19.6324 | 98.9959 | 315.5096 | 14.54846 | 7.000 |
| 2026 Apr 19 17:58 | 2026 Apr 19 07:11:01 | 98.2448 | 0.00145 | 19.5646 | 101.9083 | 315.5096 | 14.54846 | 7.000 |
| 2026 Apr 18 17:56 | 2026 Apr 18 06:25:27 | 98.2449 | 0.00145 | 19.4968 | 104.8137 | 315.5096 | 14.54846 | 7.000 |
| 2026 Apr 16 17:57 | 2026 Apr 16 01:36:12 | 98.2452 | 0.00144 | 19.3521 | 111.1227 | 315.5096 | 14.54846 | 7.000 |
| 2026 Apr 14 17:57 | 2026 Apr 14 09:59:16 | 98.2448 | 0.00144 | 19.2436 | 115.6466 | 315.5096 | 14.54846 | 7.000 |
| 2026 Apr 13 17:57 | 2026 Apr 13 05:55:35 | 98.2449 | 0.00143 | 19.1667 | 118.9650 | 315.5096 | 14.54846 | 7.000 |
| 2026 Apr 12 17:57 | 2026 Apr 12 11:46:09 | 98.2449 | 0.00143 | 19.1170 | 121.1245 | 315.5096 | 14.54846 | 7.000 |